sensor_id;sensor_type;location;lat;lon;timestamp;P1;durP1;ratioP1;P2;durP2;ratioP2
75854;SDS011;64502;59.976;30.316;2024-03-07T00:02:41;7.68;;;3.45;;
75854;SDS011;64502;59.976;30.316;2024-03-07T00:05:07;7.30;;;3.58;;
75854;SDS011;64502;59.976;30.316;2024-03-07T00:07:33;5.72;;;3.22;;
75854;SDS011;64502;59.976;30.316;2024-03-07T00:10:00;5.32;;;2.63;;
75854;SDS011;64502;59.976;30.316;2024-03-07T00:12:25;7.45;;;2.55;;
75854;SDS011;64502;59.976;30.316;2024-03-07T00:14:52;5.90;;;3.10;;
75854;SDS011;64502;59.976;30.316;2024-03-07T00:17:18;6.00;;;2.90;;
75854;SDS011;64502;59.976;30.316;2024-03-07T00:19:44;5.45;;;2.17;;
75854;SDS011;64502;59.976;30.316;2024-03-07T00:22:10;6.05;;;3.00;;
75854;SDS011;64502;59.976;30.316;2024-03-07T00:24:35;6.97;;;2.88;;
75854;SDS011;64502;59.976;30.316;2024-03-07T00:27:02;8.23;;;3.42;;
75854;SDS011;64502;59.976;30.316;2024-03-07T00:29:29;5.95;;;2.85;;
75854;SDS011;64502;59.976;30.316;2024-03-07T00:31:54;6.28;;;3.08;;
75854;SDS011;64502;59.976;30.316;2024-03-07T00:34:20;6.15;;;2.85;;
75854;SDS011;64502;59.976;30.316;2024-03-07T00:36:48;7.20;;;2.80;;
75854;SDS011;64502;59.976;30.316;2024-03-07T00:39:13;8.40;;;3.22;;
75854;SDS011;64502;59.976;30.316;2024-03-07T00:41:39;7.53;;;3.20;;
75854;SDS011;64502;59.976;30.316;2024-03-07T00:44:06;6.57;;;2.65;;
75854;SDS011;64502;59.976;30.316;2024-03-07T00:46:34;6.90;;;3.22;;
75854;SDS011;64502;59.976;30.316;2024-03-07T00:49:01;8.90;;;3.85;;
75854;SDS011;64502;59.976;30.316;2024-03-07T00:51:26;5.88;;;2.63;;
75854;SDS011;64502;59.976;30.316;2024-03-07T00:53:52;7.75;;;3.13;;
75854;SDS011;64502;59.976;30.316;2024-03-07T00:56:17;8.45;;;3.53;;
75854;SDS011;64502;59.976;30.316;2024-03-07T00:58:43;7.20;;;3.45;;
75854;SDS011;64502;59.976;30.316;2024-03-07T01:01:09;7.70;;;3.17;;
75854;SDS011;64502;59.976;30.316;2024-03-07T01:03:36;8.30;;;3.33;;
75854;SDS011;64502;59.976;30.316;2024-03-07T01:06:02;6.05;;;2.95;;
75854;SDS011;64502;59.976;30.316;2024-03-07T01:08:28;7.60;;;2.90;;
75854;SDS011;64502;59.976;30.316;2024-03-07T01:10:57;7.47;;;2.97;;
75854;SDS011;64502;59.976;30.316;2024-03-07T01:13:23;7.55;;;3.17;;
75854;SDS011;64502;59.976;30.316;2024-03-07T01:15:49;9.80;;;3.95;;
75854;SDS011;64502;59.976;30.316;2024-03-07T01:18:15;8.10;;;3.90;;
75854;SDS011;64502;59.976;30.316;2024-03-07T01:20:40;12.88;;;3.55;;
75854;SDS011;64502;59.976;30.316;2024-03-07T01:23:06;8.55;;;3.75;;
75854;SDS011;64502;59.976;30.316;2024-03-07T01:25:33;8.85;;;4.15;;
75854;SDS011;64502;59.976;30.316;2024-03-07T01:28:01;9.02;;;4.28;;
75854;SDS011;64502;59.976;30.316;2024-03-07T01:30:29;8.38;;;3.92;;
75854;SDS011;64502;59.976;30.316;2024-03-07T01:32:55;9.13;;;4.18;;
75854;SDS011;64502;59.976;30.316;2024-03-07T01:35:20;7.28;;;3.47;;
75854;SDS011;64502;59.976;30.316;2024-03-07T01:37:46;7.45;;;4.05;;
75854;SDS011;64502;59.976;30.316;2024-03-07T01:40:12;8.95;;;3.58;;
75854;SDS011;64502;59.976;30.316;2024-03-07T01:42:39;8.43;;;3.80;;
75854;SDS011;64502;59.976;30.316;2024-03-07T01:45:05;8.60;;;4.22;;
75854;SDS011;64502;59.976;30.316;2024-03-07T01:47:33;6.88;;;3.25;;
75854;SDS011;64502;59.976;30.316;2024-03-07T01:49:59;7.47;;;3.50;;
75854;SDS011;64502;59.976;30.316;2024-03-07T01:52:25;8.45;;;3.63;;
75854;SDS011;64502;59.976;30.316;2024-03-07T01:54:51;8.52;;;3.97;;
75854;SDS011;64502;59.976;30.316;2024-03-07T01:57:17;10.85;;;3.78;;
75854;SDS011;64502;59.976;30.316;2024-03-07T01:59:44;8.05;;;3.72;;
75854;SDS011;64502;59.976;30.316;2024-03-07T02:02:10;6.70;;;2.95;;
75854;SDS011;64502;59.976;30.316;2024-03-07T02:04:38;7.07;;;3.35;;
75854;SDS011;64502;59.976;30.316;2024-03-07T02:09:48;8.43;;;3.47;;
75854;SDS011;64502;59.976;30.316;2024-03-07T02:12:13;7.40;;;3.00;;
75854;SDS011;64502;59.976;30.316;2024-03-07T02:14:39;6.72;;;3.45;;
75854;SDS011;64502;59.976;30.316;2024-03-07T02:17:04;7.00;;;2.78;;
75854;SDS011;64502;59.976;30.316;2024-03-07T02:19:30;7.45;;;3.70;;
75854;SDS011;64502;59.976;30.316;2024-03-07T02:21:57;6.82;;;2.95;;
75854;SDS011;64502;59.976;30.316;2024-03-07T02:24:22;7.60;;;3.40;;
75854;SDS011;64502;59.976;30.316;2024-03-07T02:26:48;8.10;;;3.45;;
75854;SDS011;64502;59.976;30.316;2024-03-07T02:29:14;6.93;;;2.65;;
75854;SDS011;64502;59.976;30.316;2024-03-07T02:31:40;7.95;;;3.25;;
75854;SDS011;64502;59.976;30.316;2024-03-07T02:36:52;9.98;;;3.42;;
75854;SDS011;64502;59.976;30.316;2024-03-07T02:39:36;8.65;;;3.65;;
75854;SDS011;64502;59.976;30.316;2024-03-07T02:42:02;8.38;;;3.88;;
75854;SDS011;64502;59.976;30.316;2024-03-07T02:44:27;6.82;;;2.95;;
75854;SDS011;64502;59.976;30.316;2024-03-07T02:46:53;7.70;;;3.55;;
75854;SDS011;64502;59.976;30.316;2024-03-07T02:49:20;6.55;;;3.10;;
75854;SDS011;64502;59.976;30.316;2024-03-07T02:51:46;8.02;;;3.05;;
75854;SDS011;64502;59.976;30.316;2024-03-07T02:54:12;7.40;;;3.25;;
75854;SDS011;64502;59.976;30.316;2024-03-07T02:56:38;9.65;;;3.35;;
75854;SDS011;64502;59.976;30.316;2024-03-07T02:59:03;9.13;;;3.38;;
75854;SDS011;64502;59.976;30.316;2024-03-07T03:01:47;9.68;;;3.92;;
75854;SDS011;64502;59.976;30.316;2024-03-07T03:04:13;8.73;;;3.03;;
75854;SDS011;64502;59.976;30.316;2024-03-07T03:06:39;7.82;;;3.63;;
75854;SDS011;64502;59.976;30.316;2024-03-07T03:09:05;6.97;;;3.40;;
75854;SDS011;64502;59.976;30.316;2024-03-07T03:11:30;7.85;;;3.33;;
75854;SDS011;64502;59.976;30.316;2024-03-07T03:13:56;10.38;;;3.60;;
75854;SDS011;64502;59.976;30.316;2024-03-07T03:16:21;8.40;;;3.60;;
75854;SDS011;64502;59.976;30.316;2024-03-07T03:18:47;9.13;;;3.53;;
75854;SDS011;64502;59.976;30.316;2024-03-07T03:21:13;7.88;;;3.40;;
75854;SDS011;64502;59.976;30.316;2024-03-07T03:23:40;7.78;;;2.97;;
75854;SDS011;64502;59.976;30.316;2024-03-07T03:26:06;7.85;;;3.10;;
75854;SDS011;64502;59.976;30.316;2024-03-07T03:28:32;9.23;;;2.92;;
75854;SDS011;64502;59.976;30.316;2024-03-07T03:30:57;10.02;;;3.50;;
75854;SDS011;64502;59.976;30.316;2024-03-07T03:33:23;6.15;;;2.78;;
75854;SDS011;64502;59.976;30.316;2024-03-07T03:35:48;7.65;;;3.17;;
75854;SDS011;64502;59.976;30.316;2024-03-07T03:38:32;6.15;;;2.90;;
75854;SDS011;64502;59.976;30.316;2024-03-07T03:41:18;8.63;;;3.47;;
75854;SDS011;64502;59.976;30.316;2024-03-07T03:43:44;8.43;;;3.25;;
75854;SDS011;64502;59.976;30.316;2024-03-07T03:46:10;7.70;;;3.28;;
75854;SDS011;64502;59.976;30.316;2024-03-07T03:48:36;7.72;;;3.65;;
75854;SDS011;64502;59.976;30.316;2024-03-07T03:51:03;7.25;;;3.15;;
75854;SDS011;64502;59.976;30.316;2024-03-07T03:53:28;8.80;;;3.25;;
75854;SDS011;64502;59.976;30.316;2024-03-07T03:55:54;9.88;;;3.83;;
75854;SDS011;64502;59.976;30.316;2024-03-07T03:58:19;8.98;;;3.60;;
75854;SDS011;64502;59.976;30.316;2024-03-07T04:00:45;14.05;;;4.55;;
75854;SDS011;64502;59.976;30.316;2024-03-07T04:03:10;12.18;;;4.70;;
75854;SDS011;64502;59.976;30.316;2024-03-07T04:05:37;12.02;;;4.22;;
75854;SDS011;64502;59.976;30.316;2024-03-07T04:08:02;8.02;;;3.35;;
75854;SDS011;64502;59.976;30.316;2024-03-07T04:10:29;11.23;;;3.70;;
75854;SDS011;64502;59.976;30.316;2024-03-07T04:13:13;8.25;;;3.88;;
75854;SDS011;64502;59.976;30.316;2024-03-07T04:15:57;18.05;;;4.57;;
75854;SDS011;64502;59.976;30.316;2024-03-07T04:18:24;7.60;;;3.70;;
75854;SDS011;64502;59.976;30.316;2024-03-07T04:20:49;11.88;;;4.28;;
75854;SDS011;64502;59.976;30.316;2024-03-07T04:23:16;11.80;;;5.03;;
75854;SDS011;64502;59.976;30.316;2024-03-07T04:25:41;10.93;;;4.18;;
75854;SDS011;64502;59.976;30.316;2024-03-07T04:28:07;14.23;;;5.30;;
75854;SDS011;64502;59.976;30.316;2024-03-07T04:30:33;12.57;;;4.03;;
75854;SDS011;64502;59.976;30.316;2024-03-07T04:32:58;9.63;;;3.85;;
75854;SDS011;64502;59.976;30.316;2024-03-07T04:35:24;16.58;;;5.15;;
75854;SDS011;64502;59.976;30.316;2024-03-07T04:37:51;9.63;;;4.43;;
75854;SDS011;64502;59.976;30.316;2024-03-07T04:40:17;10.70;;;3.83;;
75854;SDS011;64502;59.976;30.316;2024-03-07T04:42:44;11.77;;;3.85;;
75854;SDS011;64502;59.976;30.316;2024-03-07T04:45:11;10.00;;;3.80;;
75854;SDS011;64502;59.976;30.316;2024-03-07T04:47:41;8.85;;;3.72;;
75854;SDS011;64502;59.976;30.316;2024-03-07T04:50:11;11.90;;;3.90;;
75854;SDS011;64502;59.976;30.316;2024-03-07T04:52:38;11.88;;;3.60;;
75854;SDS011;64502;59.976;30.316;2024-03-07T04:55:07;11.38;;;4.05;;
75854;SDS011;64502;59.976;30.316;2024-03-07T04:57:38;8.80;;;3.63;;
75854;SDS011;64502;59.976;30.316;2024-03-07T05:00:08;10.02;;;3.50;;
75854;SDS011;64502;59.976;30.316;2024-03-07T05:02:45;17.73;;;4.38;;
75854;SDS011;64502;59.976;30.316;2024-03-07T05:05:31;8.32;;;3.05;;
75854;SDS011;64502;59.976;30.316;2024-03-07T05:07:57;14.88;;;2.95;;
75854;SDS011;64502;59.976;30.316;2024-03-07T05:10:41;6.57;;;3.55;;
75854;SDS011;64502;59.976;30.316;2024-03-07T05:13:07;23.60;;;4.25;;
75854;SDS011;64502;59.976;30.316;2024-03-07T05:15:32;13.23;;;3.58;;
75854;SDS011;64502;59.976;30.316;2024-03-07T05:17:58;15.55;;;2.90;;
75854;SDS011;64502;59.976;30.316;2024-03-07T05:20:24;10.35;;;3.33;;
75854;SDS011;64502;59.976;30.316;2024-03-07T05:22:49;9.98;;;3.88;;
75854;SDS011;64502;59.976;30.316;2024-03-07T05:25:18;10.18;;;3.45;;
75854;SDS011;64502;59.976;30.316;2024-03-07T05:27:44;8.32;;;3.42;;
75854;SDS011;64502;59.976;30.316;2024-03-07T05:30:10;11.30;;;3.30;;
75854;SDS011;64502;59.976;30.316;2024-03-07T05:32:36;9.13;;;3.50;;
75854;SDS011;64502;59.976;30.316;2024-03-07T05:35:02;10.25;;;3.22;;
75854;SDS011;64502;59.976;30.316;2024-03-07T05:37:28;7.10;;;2.63;;
75854;SDS011;64502;59.976;30.316;2024-03-07T05:39:54;14.73;;;3.67;;
75854;SDS011;64502;59.976;30.316;2024-03-07T05:42:21;9.30;;;3.40;;
75854;SDS011;64502;59.976;30.316;2024-03-07T05:44:46;10.77;;;3.28;;
75854;SDS011;64502;59.976;30.316;2024-03-07T05:47:12;14.45;;;3.60;;
75854;SDS011;64502;59.976;30.316;2024-03-07T05:49:42;9.30;;;3.92;;
75854;SDS011;64502;59.976;30.316;2024-03-07T05:52:07;8.57;;;3.55;;
75854;SDS011;64502;59.976;30.316;2024-03-07T05:54:34;9.23;;;2.72;;
75854;SDS011;64502;59.976;30.316;2024-03-07T05:57:00;13.02;;;3.67;;
75854;SDS011;64502;59.976;30.316;2024-03-07T05:59:26;10.98;;;3.05;;
75854;SDS011;64502;59.976;30.316;2024-03-07T06:04:22;6.13;;;2.42;;
75854;SDS011;64502;59.976;30.316;2024-03-07T06:06:47;7.10;;;3.35;;
75854;SDS011;64502;59.976;30.316;2024-03-07T06:09:14;7.00;;;3.03;;
75854;SDS011;64502;59.976;30.316;2024-03-07T06:11:46;9.73;;;2.42;;
75854;SDS011;64502;59.976;30.316;2024-03-07T06:14:13;6.43;;;3.08;;
75854;SDS011;64502;59.976;30.316;2024-03-07T06:16:39;6.63;;;2.85;;
75854;SDS011;64502;59.976;30.316;2024-03-07T06:19:05;9.52;;;3.58;;
75854;SDS011;64502;59.976;30.316;2024-03-07T06:21:32;7.70;;;3.42;;
75854;SDS011;64502;59.976;30.316;2024-03-07T06:23:59;12.00;;;3.55;;
75854;SDS011;64502;59.976;30.316;2024-03-07T06:26:32;5.35;;;2.75;;
75854;SDS011;64502;59.976;30.316;2024-03-07T06:29:17;6.47;;;3.15;;
75854;SDS011;64502;59.976;30.316;2024-03-07T06:31:43;5.13;;;2.50;;
75854;SDS011;64502;59.976;30.316;2024-03-07T06:34:13;8.80;;;3.15;;
75854;SDS011;64502;59.976;30.316;2024-03-07T06:36:39;9.52;;;3.20;;
75854;SDS011;64502;59.976;30.316;2024-03-07T06:39:08;8.60;;;3.03;;
75854;SDS011;64502;59.976;30.316;2024-03-07T06:41:35;10.40;;;3.17;;
75854;SDS011;64502;59.976;30.316;2024-03-07T06:44:02;8.70;;;3.17;;
75854;SDS011;64502;59.976;30.316;2024-03-07T06:46:28;7.57;;;2.67;;
75854;SDS011;64502;59.976;30.316;2024-03-07T06:48:54;9.73;;;3.05;;
75854;SDS011;64502;59.976;30.316;2024-03-07T06:51:21;7.95;;;2.75;;
75854;SDS011;64502;59.976;30.316;2024-03-07T06:53:47;7.15;;;2.50;;
75854;SDS011;64502;59.976;30.316;2024-03-07T06:56:14;5.30;;;2.13;;
75854;SDS011;64502;59.976;30.316;2024-03-07T06:58:40;10.95;;;3.03;;
75854;SDS011;64502;59.976;30.316;2024-03-07T07:01:06;6.13;;;2.47;;
75854;SDS011;64502;59.976;30.316;2024-03-07T07:03:36;5.55;;;2.20;;
75854;SDS011;64502;59.976;30.316;2024-03-07T07:06:02;8.82;;;2.75;;
75854;SDS011;64502;59.976;30.316;2024-03-07T07:08:31;7.72;;;2.50;;
75854;SDS011;64502;59.976;30.316;2024-03-07T07:10:57;6.57;;;2.35;;
75854;SDS011;64502;59.976;30.316;2024-03-07T07:13:23;5.78;;;2.28;;
75854;SDS011;64502;59.976;30.316;2024-03-07T07:15:49;5.47;;;2.33;;
75854;SDS011;64502;59.976;30.316;2024-03-07T07:18:15;5.07;;;2.20;;
75854;SDS011;64502;59.976;30.316;2024-03-07T07:20:40;5.80;;;2.42;;
75854;SDS011;64502;59.976;30.316;2024-03-07T07:23:06;7.35;;;1.80;;
75854;SDS011;64502;59.976;30.316;2024-03-07T07:25:33;6.72;;;2.53;;
75854;SDS011;64502;59.976;30.316;2024-03-07T07:27:58;9.70;;;2.40;;
75854;SDS011;64502;59.976;30.316;2024-03-07T07:30:43;10.10;;;3.00;;
75854;SDS011;64502;59.976;30.316;2024-03-07T07:33:09;5.53;;;1.98;;
75854;SDS011;64502;59.976;30.316;2024-03-07T07:35:34;7.15;;;2.42;;
75854;SDS011;64502;59.976;30.316;2024-03-07T07:38:00;5.47;;;2.15;;
75854;SDS011;64502;59.976;30.316;2024-03-07T07:40:25;5.45;;;2.35;;
75854;SDS011;64502;59.976;30.316;2024-03-07T07:42:52;5.43;;;2.15;;
75854;SDS011;64502;59.976;30.316;2024-03-07T07:45:19;4.47;;;1.88;;
75854;SDS011;64502;59.976;30.316;2024-03-07T07:47:46;7.55;;;2.38;;
75854;SDS011;64502;59.976;30.316;2024-03-07T07:50:17;6.05;;;1.95;;
75854;SDS011;64502;59.976;30.316;2024-03-07T07:55:16;4.90;;;2.25;;
75854;SDS011;64502;59.976;30.316;2024-03-07T07:57:43;9.52;;;2.40;;
75854;SDS011;64502;59.976;30.316;2024-03-07T08:00:18;14.05;;;3.00;;
75854;SDS011;64502;59.976;30.316;2024-03-07T08:02:55;9.98;;;3.13;;
75854;SDS011;64502;59.976;30.316;2024-03-07T08:05:24;5.43;;;2.63;;
75854;SDS011;64502;59.976;30.316;2024-03-07T08:07:52;18.15;;;2.67;;
75854;SDS011;64502;59.976;30.316;2024-03-07T08:10:39;9.75;;;2.92;;
75854;SDS011;64502;59.976;30.316;2024-03-07T08:13:06;6.72;;;2.33;;
75854;SDS011;64502;59.976;30.316;2024-03-07T08:15:31;4.50;;;2.08;;
75854;SDS011;64502;59.976;30.316;2024-03-07T08:17:57;12.32;;;2.92;;
75854;SDS011;64502;59.976;30.316;2024-03-07T08:20:24;5.60;;;2.10;;
75854;SDS011;64502;59.976;30.316;2024-03-07T08:22:52;6.50;;;2.67;;
75854;SDS011;64502;59.976;30.316;2024-03-07T08:25:20;9.05;;;2.85;;
75854;SDS011;64502;59.976;30.316;2024-03-07T08:27:48;4.25;;;2.08;;
75854;SDS011;64502;59.976;30.316;2024-03-07T08:30:15;17.02;;;2.42;;
75854;SDS011;64502;59.976;30.316;2024-03-07T08:32:42;9.60;;;2.65;;
75854;SDS011;64502;59.976;30.316;2024-03-07T08:35:09;7.20;;;3.30;;
75854;SDS011;64502;59.976;30.316;2024-03-07T08:40:26;14.23;;;2.90;;
75854;SDS011;64502;59.976;30.316;2024-03-07T08:42:56;9.27;;;2.50;;
75854;SDS011;64502;59.976;30.316;2024-03-07T08:45:22;6.90;;;2.25;;
75854;SDS011;64502;59.976;30.316;2024-03-07T08:47:52;6.47;;;3.30;;
75854;SDS011;64502;59.976;30.316;2024-03-07T08:50:22;8.18;;;3.33;;
75854;SDS011;64502;59.976;30.316;2024-03-07T08:52:48;8.80;;;2.75;;
75854;SDS011;64502;59.976;30.316;2024-03-07T08:55:19;7.20;;;2.88;;
75854;SDS011;64502;59.976;30.316;2024-03-07T08:57:45;7.65;;;2.97;;
75854;SDS011;64502;59.976;30.316;2024-03-07T09:00:13;9.27;;;2.88;;
75854;SDS011;64502;59.976;30.316;2024-03-07T09:02:59;8.80;;;2.90;;
75854;SDS011;64502;59.976;30.316;2024-03-07T09:05:28;7.03;;;2.97;;
75854;SDS011;64502;59.976;30.316;2024-03-07T09:07:54;8.95;;;2.72;;
75854;SDS011;64502;59.976;30.316;2024-03-07T09:10:20;7.55;;;2.33;;
75854;SDS011;64502;59.976;30.316;2024-03-07T09:12:46;6.97;;;2.70;;
75854;SDS011;64502;59.976;30.316;2024-03-07T09:15:15;9.15;;;2.33;;
75854;SDS011;64502;59.976;30.316;2024-03-07T09:17:46;10.13;;;2.78;;
75854;SDS011;64502;59.976;30.316;2024-03-07T09:20:12;6.57;;;3.00;;
75854;SDS011;64502;59.976;30.316;2024-03-07T09:22:41;8.57;;;2.70;;
75854;SDS011;64502;59.976;30.316;2024-03-07T09:25:26;7.30;;;2.63;;
75854;SDS011;64502;59.976;30.316;2024-03-07T09:27:52;10.25;;;3.00;;
75854;SDS011;64502;59.976;30.316;2024-03-07T09:30:19;11.43;;;2.85;;
75854;SDS011;64502;59.976;30.316;2024-03-07T09:32:49;10.35;;;2.50;;
75854;SDS011;64502;59.976;30.316;2024-03-07T09:35:14;8.30;;;3.13;;
75854;SDS011;64502;59.976;30.316;2024-03-07T09:37:41;13.88;;;3.40;;
75854;SDS011;64502;59.976;30.316;2024-03-07T09:40:07;11.38;;;3.20;;
75854;SDS011;64502;59.976;30.316;2024-03-07T09:42:43;7.82;;;2.47;;
75854;SDS011;64502;59.976;30.316;2024-03-07T09:45:14;12.23;;;3.17;;
75854;SDS011;64502;59.976;30.316;2024-03-07T09:47:48;8.63;;;2.85;;
75854;SDS011;64502;59.976;30.316;2024-03-07T09:50:18;7.03;;;2.53;;
75854;SDS011;64502;59.976;30.316;2024-03-07T09:52:46;9.45;;;2.63;;
75854;SDS011;64502;59.976;30.316;2024-03-07T09:55:19;8.85;;;2.88;;
75854;SDS011;64502;59.976;30.316;2024-03-07T09:57:47;4.45;;;2.25;;
75854;SDS011;64502;59.976;30.316;2024-03-07T10:00:13;7.18;;;2.35;;
75854;SDS011;64502;59.976;30.316;2024-03-07T10:02:47;4.18;;;2.17;;
75854;SDS011;64502;59.976;30.316;2024-03-07T10:05:15;5.85;;;2.40;;
75854;SDS011;64502;59.976;30.316;2024-03-07T10:07:44;7.40;;;2.35;;
75854;SDS011;64502;59.976;30.316;2024-03-07T10:10:10;10.45;;;2.78;;
75854;SDS011;64502;59.976;30.316;2024-03-07T10:12:40;9.95;;;2.58;;
75854;SDS011;64502;59.976;30.316;2024-03-07T10:15:06;6.85;;;2.55;;
75854;SDS011;64502;59.976;30.316;2024-03-07T10:17:35;6.78;;;2.00;;
75854;SDS011;64502;59.976;30.316;2024-03-07T10:20:02;5.05;;;2.13;;
75854;SDS011;64502;59.976;30.316;2024-03-07T10:22:28;8.15;;;2.50;;
75854;SDS011;64502;59.976;30.316;2024-03-07T10:24:54;14.85;;;3.17;;
75854;SDS011;64502;59.976;30.316;2024-03-07T10:27:21;6.82;;;2.47;;
75854;SDS011;64502;59.976;30.316;2024-03-07T10:29:48;9.90;;;2.70;;
75854;SDS011;64502;59.976;30.316;2024-03-07T10:32:19;7.30;;;2.88;;
75854;SDS011;64502;59.976;30.316;2024-03-07T10:34:46;9.13;;;3.05;;
75854;SDS011;64502;59.976;30.316;2024-03-07T10:37:13;11.90;;;2.88;;
75854;SDS011;64502;59.976;30.316;2024-03-07T10:39:44;7.75;;;2.45;;
75854;SDS011;64502;59.976;30.316;2024-03-07T10:42:14;8.35;;;2.63;;
75854;SDS011;64502;59.976;30.316;2024-03-07T10:44:47;17.42;;;3.47;;
75854;SDS011;64502;59.976;30.316;2024-03-07T10:47:19;7.45;;;2.33;;
75854;SDS011;64502;59.976;30.316;2024-03-07T10:52:26;6.82;;;2.97;;
75854;SDS011;64502;59.976;30.316;2024-03-07T10:55:19;17.52;;;2.97;;
75854;SDS011;64502;59.976;30.316;2024-03-07T11:00:54;11.27;;;2.28;;
75854;SDS011;64502;59.976;30.316;2024-03-07T11:03:23;6.38;;;2.50;;
75854;SDS011;64502;59.976;30.316;2024-03-07T11:08:36;6.75;;;2.22;;
75854;SDS011;64502;59.976;30.316;2024-03-07T11:11:03;6.32;;;2.38;;
75854;SDS011;64502;59.976;30.316;2024-03-07T11:13:32;9.68;;;2.55;;
75854;SDS011;64502;59.976;30.316;2024-03-07T11:15:59;14.10;;;3.03;;
75854;SDS011;64502;59.976;30.316;2024-03-07T11:19:17;13.02;;;2.33;;
75854;SDS011;64502;59.976;30.316;2024-03-07T11:21:51;10.68;;;2.65;;
75854;SDS011;64502;59.976;30.316;2024-03-07T11:24:24;12.13;;;2.95;;
75854;SDS011;64502;59.976;30.316;2024-03-07T11:26:56;8.02;;;2.85;;
75854;SDS011;64502;59.976;30.316;2024-03-07T11:29:41;6.63;;;2.45;;
75854;SDS011;64502;59.976;30.316;2024-03-07T11:32:09;8.02;;;2.90;;
75854;SDS011;64502;59.976;30.316;2024-03-07T11:34:40;7.60;;;2.83;;
75854;SDS011;64502;59.976;30.316;2024-03-07T11:37:06;8.93;;;2.53;;
75854;SDS011;64502;59.976;30.316;2024-03-07T11:39:46;11.20;;;2.83;;
75854;SDS011;64502;59.976;30.316;2024-03-07T11:44:56;10.90;;;3.72;;
75854;SDS011;64502;59.976;30.316;2024-03-07T11:47:36;7.95;;;2.72;;
75854;SDS011;64502;59.976;30.316;2024-03-07T11:50:06;8.48;;;2.45;;
75854;SDS011;64502;59.976;30.316;2024-03-07T11:52:36;12.38;;;2.97;;
75854;SDS011;64502;59.976;30.316;2024-03-07T11:55:09;15.02;;;2.95;;
75854;SDS011;64502;59.976;30.316;2024-03-07T11:57:35;10.35;;;2.58;;
75854;SDS011;64502;59.976;30.316;2024-03-07T12:00:03;13.00;;;2.60;;
75854;SDS011;64502;59.976;30.316;2024-03-07T12:02:36;10.23;;;2.60;;
75854;SDS011;64502;59.976;30.316;2024-03-07T12:05:03;6.07;;;2.60;;
75854;SDS011;64502;59.976;30.316;2024-03-07T12:07:32;7.45;;;2.40;;
75854;SDS011;64502;59.976;30.316;2024-03-07T12:09:59;12.80;;;2.65;;
75854;SDS011;64502;59.976;30.316;2024-03-07T12:12:29;11.98;;;5.07;;
75854;SDS011;64502;59.976;30.316;2024-03-07T12:14:55;8.57;;;3.30;;
75854;SDS011;64502;59.976;30.316;2024-03-07T12:17:46;10.32;;;2.85;;
75854;SDS011;64502;59.976;30.316;2024-03-07T12:20:15;6.75;;;2.33;;
75854;SDS011;64502;59.976;30.316;2024-03-07T12:22:59;7.20;;;2.25;;
75854;SDS011;64502;59.976;30.316;2024-03-07T12:25:30;7.90;;;2.67;;
75854;SDS011;64502;59.976;30.316;2024-03-07T12:28:02;5.13;;;1.63;;
75854;SDS011;64502;59.976;30.316;2024-03-07T12:30:34;11.95;;;3.00;;
75854;SDS011;64502;59.976;30.316;2024-03-07T12:33:01;4.78;;;1.88;;
75854;SDS011;64502;59.976;30.316;2024-03-07T12:35:32;6.15;;;1.80;;
75854;SDS011;64502;59.976;30.316;2024-03-07T12:37:58;6.75;;;2.30;;
75854;SDS011;64502;59.976;30.316;2024-03-07T12:40:25;7.95;;;2.53;;
75854;SDS011;64502;59.976;30.316;2024-03-07T12:42:54;6.57;;;1.60;;
75854;SDS011;64502;59.976;30.316;2024-03-07T12:45:19;7.65;;;2.50;;
75854;SDS011;64502;59.976;30.316;2024-03-07T12:47:48;5.95;;;2.13;;
75854;SDS011;64502;59.976;30.316;2024-03-07T12:50:19;7.85;;;2.03;;
75854;SDS011;64502;59.976;30.316;2024-03-07T12:52:48;5.05;;;1.90;;
75854;SDS011;64502;59.976;30.316;2024-03-07T12:55:17;7.82;;;2.20;;
75854;SDS011;64502;59.976;30.316;2024-03-07T12:57:44;7.85;;;2.13;;
75854;SDS011;64502;59.976;30.316;2024-03-07T13:00:10;5.78;;;1.92;;
75854;SDS011;64502;59.976;30.316;2024-03-07T13:02:44;9.10;;;2.50;;
75854;SDS011;64502;59.976;30.316;2024-03-07T13:05:11;7.47;;;2.17;;
75854;SDS011;64502;59.976;30.316;2024-03-07T13:07:44;5.03;;;1.65;;
75854;SDS011;64502;59.976;30.316;2024-03-07T13:10:12;6.78;;;1.60;;
75854;SDS011;64502;59.976;30.316;2024-03-07T13:12:43;8.90;;;2.20;;
75854;SDS011;64502;59.976;30.316;2024-03-07T13:15:13;5.43;;;1.48;;
75854;SDS011;64502;59.976;30.316;2024-03-07T13:17:40;6.28;;;1.60;;
75854;SDS011;64502;59.976;30.316;2024-03-07T13:20:08;5.88;;;1.95;;
75854;SDS011;64502;59.976;30.316;2024-03-07T13:22:40;5.93;;;1.98;;
75854;SDS011;64502;59.976;30.316;2024-03-07T13:25:25;8.43;;;3.45;;
75854;SDS011;64502;59.976;30.316;2024-03-07T13:27:57;7.30;;;2.22;;
75854;SDS011;64502;59.976;30.316;2024-03-07T13:30:24;6.45;;;2.05;;
75854;SDS011;64502;59.976;30.316;2024-03-07T13:32:57;5.10;;;1.85;;
75854;SDS011;64502;59.976;30.316;2024-03-07T13:35:25;4.25;;;1.73;;
75854;SDS011;64502;59.976;30.316;2024-03-07T13:37:51;7.03;;;1.38;;
75854;SDS011;64502;59.976;30.316;2024-03-07T13:40:20;8.32;;;1.48;;
75854;SDS011;64502;59.976;30.316;2024-03-07T13:42:50;7.63;;;1.38;;
75854;SDS011;64502;59.976;30.316;2024-03-07T13:45:29;4.95;;;1.70;;
75854;SDS011;64502;59.976;30.316;2024-03-07T13:48:04;9.88;;;1.90;;
75854;SDS011;64502;59.976;30.316;2024-03-07T13:53:20;2.97;;;0.60;;
75854;SDS011;64502;59.976;30.316;2024-03-07T14:21:40;5.40;;;0.90;;
75854;SDS011;64502;59.976;30.316;2024-03-07T14:32:56;3.65;;;1.17;;
75854;SDS011;64502;59.976;30.316;2024-03-07T14:40:47;3.92;;;1.50;;
75854;SDS011;64502;59.976;30.316;2024-03-07T14:43:15;7.78;;;1.88;;
75854;SDS011;64502;59.976;30.316;2024-03-07T14:45:42;5.22;;;1.77;;
75854;SDS011;64502;59.976;30.316;2024-03-07T14:48:08;4.60;;;1.17;;
75854;SDS011;64502;59.976;30.316;2024-03-07T14:50:38;6.05;;;1.48;;
75854;SDS011;64502;59.976;30.316;2024-03-07T14:53:05;6.78;;;1.65;;
75854;SDS011;64502;59.976;30.316;2024-03-07T14:55:31;4.70;;;1.90;;
75854;SDS011;64502;59.976;30.316;2024-03-07T14:57:58;5.85;;;1.40;;
75854;SDS011;64502;59.976;30.316;2024-03-07T15:00:24;5.82;;;2.00;;
75854;SDS011;64502;59.976;30.316;2024-03-07T15:03:13;5.68;;;1.75;;
75854;SDS011;64502;59.976;30.316;2024-03-07T15:05:42;8.27;;;1.73;;
75854;SDS011;64502;59.976;30.316;2024-03-07T15:08:11;7.00;;;1.52;;
75854;SDS011;64502;59.976;30.316;2024-03-07T15:13:28;3.95;;;1.17;;
75854;SDS011;64502;59.976;30.316;2024-03-07T15:15:54;4.65;;;1.73;;
75854;SDS011;64502;59.976;30.316;2024-03-07T15:18:21;5.15;;;1.67;;
75854;SDS011;64502;59.976;30.316;2024-03-07T15:20:47;6.40;;;2.10;;
75854;SDS011;64502;59.976;30.316;2024-03-07T15:23:12;4.15;;;1.10;;
75854;SDS011;64502;59.976;30.316;2024-03-07T15:25:39;5.57;;;1.02;;
75854;SDS011;64502;59.976;30.316;2024-03-07T15:28:04;5.18;;;1.95;;
75854;SDS011;64502;59.976;30.316;2024-03-07T15:30:30;4.18;;;1.35;;
75854;SDS011;64502;59.976;30.316;2024-03-07T15:33:04;6.38;;;1.48;;
75854;SDS011;64502;59.976;30.316;2024-03-07T15:35:30;3.55;;;1.50;;
75854;SDS011;64502;59.976;30.316;2024-03-07T15:37:56;4.38;;;1.30;;
75854;SDS011;64502;59.976;30.316;2024-03-07T15:40:22;4.78;;;1.33;;
75854;SDS011;64502;59.976;30.316;2024-03-07T15:42:50;4.05;;;1.27;;
75854;SDS011;64502;59.976;30.316;2024-03-07T15:45:20;4.97;;;1.73;;
75854;SDS011;64502;59.976;30.316;2024-03-07T15:47:50;4.30;;;1.80;;
75854;SDS011;64502;59.976;30.316;2024-03-07T15:50:30;3.25;;;1.05;;